sensor_id;sensor_type;location;lat;lon;timestamp;pressure;altitude;pressure_sealevel;temperature
73937;BMP180;59249;59.736;30.568;2022-12-07T00:02:26;100794.00;;;-4.70
73937;BMP180;59249;59.736;30.568;2022-12-07T00:04:55;100793.00;;;-4.60
73937;BMP180;59249;59.736;30.568;2022-12-07T00:07:25;100785.00;;;-4.70
73937;BMP180;59249;59.736;30.568;2022-12-07T00:09:54;100791.00;;;-4.60
73937;BMP180;59249;59.736;30.568;2022-12-07T00:12:22;100787.00;;;-4.60
73937;BMP180;59249;59.736;30.568;2022-12-07T00:14:51;100797.00;;;-4.80
73937;BMP180;59249;59.736;30.568;2022-12-07T00:17:20;100803.00;;;-4.50
73937;BMP180;59249;59.736;30.568;2022-12-07T00:19:49;100797.00;;;-4.50
73937;BMP180;59249;59.736;30.568;2022-12-07T00:22:17;100791.00;;;-4.50
73937;BMP180;59249;59.736;30.568;2022-12-07T00:24:48;100786.00;;;-4.60
73937;BMP180;59249;59.736;30.568;2022-12-07T00:27:16;100802.00;;;-4.50
73937;BMP180;59249;59.736;30.568;2022-12-07T00:29:45;100797.00;;;-4.50
73937;BMP180;59249;59.736;30.568;2022-12-07T00:32:14;100801.00;;;-4.60
73937;BMP180;59249;59.736;30.568;2022-12-07T00:34:42;100802.00;;;-4.50
73937;BMP180;59249;59.736;30.568;2022-12-07T00:37:11;100785.00;;;-4.60
73937;BMP180;59249;59.736;30.568;2022-12-07T00:39:40;100799.00;;;-4.40
73937;BMP180;59249;59.736;30.568;2022-12-07T00:42:10;100801.00;;;-4.40
73937;BMP180;59249;59.736;30.568;2022-12-07T00:44:39;100794.00;;;-4.30
73937;BMP180;59249;59.736;30.568;2022-12-07T00:47:07;100791.00;;;-4.40
73937;BMP180;59249;59.736;30.568;2022-12-07T00:49:36;100794.00;;;-4.40
73937;BMP180;59249;59.736;30.568;2022-12-07T00:52:05;100789.00;;;-4.50
73937;BMP180;59249;59.736;30.568;2022-12-07T00:54:33;100797.00;;;-4.40
73937;BMP180;59249;59.736;30.568;2022-12-07T00:57:02;100794.00;;;-4.40
73937;BMP180;59249;59.736;30.568;2022-12-07T00:59:33;100796.00;;;-4.40
73937;BMP180;59249;59.736;30.568;2022-12-07T01:02:01;100793.00;;;-4.50
73937;BMP180;59249;59.736;30.568;2022-12-07T01:04:30;100797.00;;;-4.40
73937;BMP180;59249;59.736;30.568;2022-12-07T01:07:01;100782.00;;;-4.50
73937;BMP180;59249;59.736;30.568;2022-12-07T01:09:30;100797.00;;;-4.30
73937;BMP180;59249;59.736;30.568;2022-12-07T01:11:59;100795.00;;;-4.30
73937;BMP180;59249;59.736;30.568;2022-12-07T01:14:28;100796.00;;;-4.20
73937;BMP180;59249;59.736;30.568;2022-12-07T01:16:58;100796.00;;;-4.20
73937;BMP180;59249;59.736;30.568;2022-12-07T01:19:27;100793.00;;;-4.30
73937;BMP180;59249;59.736;30.568;2022-12-07T01:21:55;100797.00;;;-4.30
73937;BMP180;59249;59.736;30.568;2022-12-07T01:24:24;100797.00;;;-4.40
73937;BMP180;59249;59.736;30.568;2022-12-07T01:26:53;100802.00;;;-4.30
73937;BMP180;59249;59.736;30.568;2022-12-07T01:29:21;100792.00;;;-4.20
73937;BMP180;59249;59.736;30.568;2022-12-07T01:31:50;100796.00;;;-4.10
73937;BMP180;59249;59.736;30.568;2022-12-07T01:34:20;100801.00;;;-4.30
73937;BMP180;59249;59.736;30.568;2022-12-07T01:36:49;100798.00;;;-4.30
73937;BMP180;59249;59.736;30.568;2022-12-07T01:39:17;100801.00;;;-4.10
73937;BMP180;59249;59.736;30.568;2022-12-07T01:41:46;100803.00;;;-4.10
73937;BMP180;59249;59.736;30.568;2022-12-07T01:44:20;100801.00;;;-4.20
73937;BMP180;59249;59.736;30.568;2022-12-07T01:46:52;100796.00;;;-4.30
73937;BMP180;59249;59.736;30.568;2022-12-07T01:49:27;100793.00;;;-4.20
73937;BMP180;59249;59.736;30.568;2022-12-07T01:52:13;100794.00;;;-4.30
73937;BMP180;59249;59.736;30.568;2022-12-07T01:54:46;100797.00;;;-4.20
73937;BMP180;59249;59.736;30.568;2022-12-07T01:57:17;100790.00;;;-4.10
73937;BMP180;59249;59.736;30.568;2022-12-07T01:59:48;100800.00;;;-4.10
73937;BMP180;59249;59.736;30.568;2022-12-07T02:02:21;100790.00;;;-4.10
73937;BMP180;59249;59.736;30.568;2022-12-07T02:04:57;100789.00;;;-4.20
73937;BMP180;59249;59.736;30.568;2022-12-07T02:07:29;100781.00;;;-4.20
73937;BMP180;59249;59.736;30.568;2022-12-07T02:10:12;100777.00;;;-4.20
73937;BMP180;59249;59.736;30.568;2022-12-07T02:12:43;100786.00;;;-4.20
73937;BMP180;59249;59.736;30.568;2022-12-07T02:15:53;100791.00;;;-4.20
73937;BMP180;59249;59.736;30.568;2022-12-07T02:18:41;100786.00;;;-4.10
73937;BMP180;59249;59.736;30.568;2022-12-07T02:21:26;100786.00;;;-4.10
73937;BMP180;59249;59.736;30.568;2022-12-07T02:24:15;100790.00;;;-4.20
73937;BMP180;59249;59.736;30.568;2022-12-07T02:27:25;100781.00;;;-4.20
73937;BMP180;59249;59.736;30.568;2022-12-07T02:30:08;100767.00;;;-4.20
73937;BMP180;59249;59.736;30.568;2022-12-07T02:32:46;100772.00;;;-4.30
73937;BMP180;59249;59.736;30.568;2022-12-07T02:35:25;100770.00;;;-4.20
73937;BMP180;59249;59.736;30.568;2022-12-07T02:38:02;100771.00;;;-4.10
73937;BMP180;59249;59.736;30.568;2022-12-07T02:40:41;100773.00;;;-4.20
73937;BMP180;59249;59.736;30.568;2022-12-07T02:43:17;100769.00;;;-4.10
73937;BMP180;59249;59.736;30.568;2022-12-07T02:45:52;100775.00;;;-4.10
73937;BMP180;59249;59.736;30.568;2022-12-07T02:48:26;100762.00;;;-4.30
73937;BMP180;59249;59.736;30.568;2022-12-07T02:50:55;100761.00;;;-4.20
73937;BMP180;59249;59.736;30.568;2022-12-07T02:53:31;100773.00;;;-4.10
73937;BMP180;59249;59.736;30.568;2022-12-07T02:56:08;100767.00;;;-4.20
73937;BMP180;59249;59.736;30.568;2022-12-07T02:58:51;100754.00;;;-4.20
73937;BMP180;59249;59.736;30.568;2022-12-07T03:01:37;100764.00;;;-4.10
73937;BMP180;59249;59.736;30.568;2022-12-07T03:04:29;100763.00;;;-4.20
73937;BMP180;59249;59.736;30.568;2022-12-07T03:07:10;100770.00;;;-4.20
73937;BMP180;59249;59.736;30.568;2022-12-07T03:09:52;100753.00;;;-4.20
73937;BMP180;59249;59.736;30.568;2022-12-07T03:12:32;100758.00;;;-4.00
73937;BMP180;59249;59.736;30.568;2022-12-07T03:15:12;100754.00;;;-4.20
73937;BMP180;59249;59.736;30.568;2022-12-07T03:17:46;100756.00;;;-4.10
73937;BMP180;59249;59.736;30.568;2022-12-07T03:20:19;100745.00;;;-4.10
73937;BMP180;59249;59.736;30.568;2022-12-07T03:22:51;100748.00;;;-4.10
73937;BMP180;59249;59.736;30.568;2022-12-07T03:25:22;100756.00;;;-4.10
73937;BMP180;59249;59.736;30.568;2022-12-07T03:27:54;100762.00;;;-4.10
73937;BMP180;59249;59.736;30.568;2022-12-07T03:30:28;100763.00;;;-4.20
73937;BMP180;59249;59.736;30.568;2022-12-07T03:33:06;100750.00;;;-4.10
73937;BMP180;59249;59.736;30.568;2022-12-07T03:35:39;100749.00;;;-4.20
73937;BMP180;59249;59.736;30.568;2022-12-07T03:38:15;100758.00;;;-4.10
73937;BMP180;59249;59.736;30.568;2022-12-07T03:40:54;100748.00;;;-4.10
73937;BMP180;59249;59.736;30.568;2022-12-07T03:43:28;100761.00;;;-4.10
73937;BMP180;59249;59.736;30.568;2022-12-07T03:46:01;100744.00;;;-4.10
73937;BMP180;59249;59.736;30.568;2022-12-07T03:48:42;100742.00;;;-4.10
73937;BMP180;59249;59.736;30.568;2022-12-07T03:51:22;100738.00;;;-4.10
73937;BMP180;59249;59.736;30.568;2022-12-07T03:53:59;100743.00;;;-4.00
73937;BMP180;59249;59.736;30.568;2022-12-07T03:56:34;100739.00;;;-4.10
73937;BMP180;59249;59.736;30.568;2022-12-07T03:59:04;100738.00;;;-4.00
73937;BMP180;59249;59.736;30.568;2022-12-07T04:01:34;100743.00;;;-4.00
73937;BMP180;59249;59.736;30.568;2022-12-07T04:04:04;100740.00;;;-4.10
73937;BMP180;59249;59.736;30.568;2022-12-07T04:06:33;100734.00;;;-4.10
73937;BMP180;59249;59.736;30.568;2022-12-07T04:09:02;100733.00;;;-4.00
73937;BMP180;59249;59.736;30.568;2022-12-07T04:11:31;100726.00;;;-4.10
73937;BMP180;59249;59.736;30.568;2022-12-07T04:14:00;100733.00;;;-4.10
73937;BMP180;59249;59.736;30.568;2022-12-07T04:16:48;100728.00;;;-4.20
73937;BMP180;59249;59.736;30.568;2022-12-07T04:19:22;100719.00;;;-4.00
73937;BMP180;59249;59.736;30.568;2022-12-07T04:21:52;100738.00;;;-4.10
73937;BMP180;59249;59.736;30.568;2022-12-07T04:24:21;100730.00;;;-4.10
73937;BMP180;59249;59.736;30.568;2022-12-07T04:26:51;100725.00;;;-4.00
73937;BMP180;59249;59.736;30.568;2022-12-07T04:29:20;100730.00;;;-4.00
73937;BMP180;59249;59.736;30.568;2022-12-07T04:31:49;100718.00;;;-4.00
73937;BMP180;59249;59.736;30.568;2022-12-07T04:34:20;100722.00;;;-4.00
73937;BMP180;59249;59.736;30.568;2022-12-07T04:36:49;100719.00;;;-4.10
73937;BMP180;59249;59.736;30.568;2022-12-07T04:39:20;100729.00;;;-4.20
73937;BMP180;59249;59.736;30.568;2022-12-07T04:41:51;100718.00;;;-4.10
73937;BMP180;59249;59.736;30.568;2022-12-07T04:44:20;100709.00;;;-4.10
73937;BMP180;59249;59.736;30.568;2022-12-07T04:46:50;100718.00;;;-4.10
73937;BMP180;59249;59.736;30.568;2022-12-07T04:49:21;100720.00;;;-4.10
73937;BMP180;59249;59.736;30.568;2022-12-07T04:51:51;100730.00;;;-4.00
73937;BMP180;59249;59.736;30.568;2022-12-07T04:54:21;100729.00;;;-4.10
73937;BMP180;59249;59.736;30.568;2022-12-07T04:56:49;100728.00;;;-4.00
73937;BMP180;59249;59.736;30.568;2022-12-07T04:59:18;100716.00;;;-4.10
73937;BMP180;59249;59.736;30.568;2022-12-07T05:01:47;100709.00;;;-4.10
73937;BMP180;59249;59.736;30.568;2022-12-07T05:04:16;100719.00;;;-4.10
73937;BMP180;59249;59.736;30.568;2022-12-07T05:06:46;100724.00;;;-4.10
73937;BMP180;59249;59.736;30.568;2022-12-07T05:09:15;100718.00;;;-4.10
73937;BMP180;59249;59.736;30.568;2022-12-07T05:11:44;100720.00;;;-4.10
73937;BMP180;59249;59.736;30.568;2022-12-07T05:14:14;100719.00;;;-4.10
73937;BMP180;59249;59.736;30.568;2022-12-07T05:16:45;100720.00;;;-4.00
73937;BMP180;59249;59.736;30.568;2022-12-07T05:19:16;100716.00;;;-4.00
73937;BMP180;59249;59.736;30.568;2022-12-07T05:21:47;100711.00;;;-4.10
73937;BMP180;59249;59.736;30.568;2022-12-07T05:24:16;100715.00;;;-4.10
73937;BMP180;59249;59.736;30.568;2022-12-07T05:26:45;100710.00;;;-4.00
73937;BMP180;59249;59.736;30.568;2022-12-07T05:29:16;100713.00;;;-4.10
73937;BMP180;59249;59.736;30.568;2022-12-07T05:31:45;100711.00;;;-4.10
73937;BMP180;59249;59.736;30.568;2022-12-07T05:34:14;100704.00;;;-4.20
73937;BMP180;59249;59.736;30.568;2022-12-07T05:36:42;100718.00;;;-4.10
73937;BMP180;59249;59.736;30.568;2022-12-07T05:39:13;100710.00;;;-4.00
73937;BMP180;59249;59.736;30.568;2022-12-07T05:41:41;100713.00;;;-4.10
73937;BMP180;59249;59.736;30.568;2022-12-07T05:44:27;100713.00;;;-4.10
73937;BMP180;59249;59.736;30.568;2022-12-07T05:46:56;100716.00;;;-4.10
73937;BMP180;59249;59.736;30.568;2022-12-07T05:49:25;100710.00;;;-4.00
73937;BMP180;59249;59.736;30.568;2022-12-07T05:51:54;100712.00;;;-4.00
73937;BMP180;59249;59.736;30.568;2022-12-07T05:54:24;100711.00;;;-4.10
73937;BMP180;59249;59.736;30.568;2022-12-07T05:56:53;100708.00;;;-4.10
73937;BMP180;59249;59.736;30.568;2022-12-07T05:59:21;100714.00;;;-4.10
73937;BMP180;59249;59.736;30.568;2022-12-07T06:01:50;100709.00;;;-4.00
73937;BMP180;59249;59.736;30.568;2022-12-07T06:04:20;100709.00;;;-4.00
73937;BMP180;59249;59.736;30.568;2022-12-07T06:06:49;100711.00;;;-4.10
73937;BMP180;59249;59.736;30.568;2022-12-07T06:09:18;100706.00;;;-4.00
73937;BMP180;59249;59.736;30.568;2022-12-07T06:11:49;100705.00;;;-4.10
73937;BMP180;59249;59.736;30.568;2022-12-07T06:14:36;100710.00;;;-4.10
73937;BMP180;59249;59.736;30.568;2022-12-07T06:17:05;100710.00;;;-4.10
73937;BMP180;59249;59.736;30.568;2022-12-07T06:19:35;100702.00;;;-4.10
73937;BMP180;59249;59.736;30.568;2022-12-07T06:22:04;100707.00;;;-4.10
73937;BMP180;59249;59.736;30.568;2022-12-07T06:24:33;100704.00;;;-4.10
73937;BMP180;59249;59.736;30.568;2022-12-07T06:27:04;100701.00;;;-4.10
73937;BMP180;59249;59.736;30.568;2022-12-07T06:29:33;100702.00;;;-4.10
73937;BMP180;59249;59.736;30.568;2022-12-07T06:32:02;100708.00;;;-4.00
73937;BMP180;59249;59.736;30.568;2022-12-07T06:34:31;100690.00;;;-4.10
73937;BMP180;59249;59.736;30.568;2022-12-07T06:37:00;100705.00;;;-4.00
73937;BMP180;59249;59.736;30.568;2022-12-07T06:39:29;100708.00;;;-3.90
73937;BMP180;59249;59.736;30.568;2022-12-07T06:41:59;100707.00;;;-3.90
73937;BMP180;59249;59.736;30.568;2022-12-07T06:44:29;100707.00;;;-3.90
73937;BMP180;59249;59.736;30.568;2022-12-07T06:46:58;100707.00;;;-3.90
73937;BMP180;59249;59.736;30.568;2022-12-07T06:49:48;100712.00;;;-3.90
73937;BMP180;59249;59.736;30.568;2022-12-07T06:52:16;100708.00;;;-3.90
73937;BMP180;59249;59.736;30.568;2022-12-07T06:54:45;100709.00;;;-3.90
73937;BMP180;59249;59.736;30.568;2022-12-07T06:57:14;100711.00;;;-3.80
73937;BMP180;59249;59.736;30.568;2022-12-07T06:59:44;100719.00;;;-3.90
73937;BMP180;59249;59.736;30.568;2022-12-07T07:02:13;100711.00;;;-3.80
73937;BMP180;59249;59.736;30.568;2022-12-07T07:04:42;100721.00;;;-3.80
73937;BMP180;59249;59.736;30.568;2022-12-07T07:07:10;100719.00;;;-3.80
73937;BMP180;59249;59.736;30.568;2022-12-07T07:09:39;100715.00;;;-3.80
73937;BMP180;59249;59.736;30.568;2022-12-07T07:12:08;100711.00;;;-3.90
73937;BMP180;59249;59.736;30.568;2022-12-07T07:14:37;100716.00;;;-3.80
73937;BMP180;59249;59.736;30.568;2022-12-07T07:17:07;100707.00;;;-3.70
73937;BMP180;59249;59.736;30.568;2022-12-07T07:19:36;100705.00;;;-3.70
73937;BMP180;59249;59.736;30.568;2022-12-07T07:22:05;100706.00;;;-3.70
73937;BMP180;59249;59.736;30.568;2022-12-07T07:24:33;100707.00;;;-3.70
73937;BMP180;59249;59.736;30.568;2022-12-07T07:27:02;100709.00;;;-3.70
73937;BMP180;59249;59.736;30.568;2022-12-07T07:29:31;100713.00;;;-3.60
73937;BMP180;59249;59.736;30.568;2022-12-07T07:32:00;100701.00;;;-3.60
73937;BMP180;59249;59.736;30.568;2022-12-07T07:34:34;100706.00;;;-3.60
73937;BMP180;59249;59.736;30.568;2022-12-07T07:37:03;100702.00;;;-3.70
73937;BMP180;59249;59.736;30.568;2022-12-07T07:39:32;100707.00;;;-3.60
73937;BMP180;59249;59.736;30.568;2022-12-07T07:42:01;100708.00;;;-3.60
73937;BMP180;59249;59.736;30.568;2022-12-07T07:44:32;100710.00;;;-3.60
73937;BMP180;59249;59.736;30.568;2022-12-07T07:47:02;100710.00;;;-3.50
73937;BMP180;59249;59.736;30.568;2022-12-07T07:49:31;100709.00;;;-3.50
73937;BMP180;59249;59.736;30.568;2022-12-07T07:52:02;100698.00;;;-3.50
73937;BMP180;59249;59.736;30.568;2022-12-07T07:54:31;100714.00;;;-3.40
73937;BMP180;59249;59.736;30.568;2022-12-07T07:57:00;100707.00;;;-3.40
73937;BMP180;59249;59.736;30.568;2022-12-07T07:59:28;100711.00;;;-3.20
73937;BMP180;59249;59.736;30.568;2022-12-07T08:01:57;100714.00;;;-3.30
73937;BMP180;59249;59.736;30.568;2022-12-07T08:04:26;100707.00;;;-3.30
73937;BMP180;59249;59.736;30.568;2022-12-07T08:06:56;100702.00;;;-3.30
73937;BMP180;59249;59.736;30.568;2022-12-07T08:09:25;100708.00;;;-3.40
73937;BMP180;59249;59.736;30.568;2022-12-07T08:11:54;100709.00;;;-3.40
73937;BMP180;59249;59.736;30.568;2022-12-07T08:14:23;100707.00;;;-3.30
73937;BMP180;59249;59.736;30.568;2022-12-07T08:16:54;100704.00;;;-3.30
73937;BMP180;59249;59.736;30.568;2022-12-07T08:19:23;100702.00;;;-3.30
73937;BMP180;59249;59.736;30.568;2022-12-07T08:21:52;100701.00;;;-3.30
73937;BMP180;59249;59.736;30.568;2022-12-07T08:24:23;100705.00;;;-3.20
73937;BMP180;59249;59.736;30.568;2022-12-07T08:26:53;100702.00;;;-3.20
73937;BMP180;59249;59.736;30.568;2022-12-07T08:29:22;100694.00;;;-3.10
73937;BMP180;59249;59.736;30.568;2022-12-07T08:31:50;100697.00;;;-3.10
73937;BMP180;59249;59.736;30.568;2022-12-07T08:34:19;100697.00;;;-3.20
73937;BMP180;59249;59.736;30.568;2022-12-07T08:36:48;100696.00;;;-3.20
73937;BMP180;59249;59.736;30.568;2022-12-07T08:39:17;100695.00;;;-3.20
73937;BMP180;59249;59.736;30.568;2022-12-07T08:42:02;100684.00;;;-3.20
73937;BMP180;59249;59.736;30.568;2022-12-07T08:44:31;100693.00;;;-3.20
73937;BMP180;59249;59.736;30.568;2022-12-07T08:47:02;100685.00;;;-3.20
73937;BMP180;59249;59.736;30.568;2022-12-07T08:49:38;100688.00;;;-3.10
73937;BMP180;59249;59.736;30.568;2022-12-07T08:52:09;100686.00;;;-3.20
73937;BMP180;59249;59.736;30.568;2022-12-07T08:54:38;100682.00;;;-3.10
73937;BMP180;59249;59.736;30.568;2022-12-07T08:57:10;100681.00;;;-3.10
73937;BMP180;59249;59.736;30.568;2022-12-07T08:59:40;100682.00;;;-3.10
73937;BMP180;59249;59.736;30.568;2022-12-07T09:02:09;100673.00;;;-3.00
73937;BMP180;59249;59.736;30.568;2022-12-07T09:04:38;100678.00;;;-3.00
73937;BMP180;59249;59.736;30.568;2022-12-07T09:07:06;100672.00;;;-3.00
73937;BMP180;59249;59.736;30.568;2022-12-07T09:09:35;100675.00;;;-3.00
73937;BMP180;59249;59.736;30.568;2022-12-07T09:12:04;100676.00;;;-2.90
73937;BMP180;59249;59.736;30.568;2022-12-07T09:14:34;100675.00;;;-2.80
73937;BMP180;59249;59.736;30.568;2022-12-07T09:17:07;100665.00;;;-2.90
73937;BMP180;59249;59.736;30.568;2022-12-07T09:19:37;100666.00;;;-2.90
73937;BMP180;59249;59.736;30.568;2022-12-07T09:22:08;100675.00;;;-3.00
73937;BMP180;59249;59.736;30.568;2022-12-07T09:24:37;100668.00;;;-3.00
73937;BMP180;59249;59.736;30.568;2022-12-07T09:27:06;100659.00;;;-2.90
73937;BMP180;59249;59.736;30.568;2022-12-07T09:29:36;100671.00;;;-2.90
73937;BMP180;59249;59.736;30.568;2022-12-07T09:32:05;100665.00;;;-2.90
73937;BMP180;59249;59.736;30.568;2022-12-07T09:34:37;100670.00;;;-3.00
73937;BMP180;59249;59.736;30.568;2022-12-07T09:37:06;100662.00;;;-3.10
73937;BMP180;59249;59.736;30.568;2022-12-07T09:39:39;100660.00;;;-2.90
73937;BMP180;59249;59.736;30.568;2022-12-07T09:42:26;100664.00;;;-2.90
73937;BMP180;59249;59.736;30.568;2022-12-07T09:44:59;100663.00;;;-3.00
73937;BMP180;59249;59.736;30.568;2022-12-07T09:47:30;100663.00;;;-3.10
73937;BMP180;59249;59.736;30.568;2022-12-07T09:50:04;100661.00;;;-3.00
73937;BMP180;59249;59.736;30.568;2022-12-07T09:52:35;100655.00;;;-3.10
73937;BMP180;59249;59.736;30.568;2022-12-07T09:55:11;100645.00;;;-3.10
73937;BMP180;59249;59.736;30.568;2022-12-07T09:57:42;100649.00;;;-3.10
73937;BMP180;59249;59.736;30.568;2022-12-07T10:00:15;100653.00;;;-3.00
73937;BMP180;59249;59.736;30.568;2022-12-07T10:02:48;100648.00;;;-3.10
73937;BMP180;59249;59.736;30.568;2022-12-07T10:05:24;100644.00;;;-3.20
73937;BMP180;59249;59.736;30.568;2022-12-07T10:07:58;100638.00;;;-3.20
73937;BMP180;59249;59.736;30.568;2022-12-07T10:10:31;100630.00;;;-3.30
73937;BMP180;59249;59.736;30.568;2022-12-07T10:13:06;100636.00;;;-3.10
73937;BMP180;59249;59.736;30.568;2022-12-07T10:15:46;100640.00;;;-3.10
73937;BMP180;59249;59.736;30.568;2022-12-07T10:18:29;100622.00;;;-3.20
73937;BMP180;59249;59.736;30.568;2022-12-07T10:21:08;100632.00;;;-3.10
73937;BMP180;59249;59.736;30.568;2022-12-07T10:23:41;100632.00;;;-3.20
73937;BMP180;59249;59.736;30.568;2022-12-07T10:26:27;100632.00;;;-3.30
73937;BMP180;59249;59.736;30.568;2022-12-07T10:29:02;100626.00;;;-3.20
73937;BMP180;59249;59.736;30.568;2022-12-07T10:31:43;100627.00;;;-3.20
73937;BMP180;59249;59.736;30.568;2022-12-07T10:34:21;100612.00;;;-3.40
73937;BMP180;59249;59.736;30.568;2022-12-07T10:36:52;100613.00;;;-3.30
73937;BMP180;59249;59.736;30.568;2022-12-07T10:39:22;100618.00;;;-3.30
73937;BMP180;59249;59.736;30.568;2022-12-07T10:41:56;100616.00;;;-3.40
73937;BMP180;59249;59.736;30.568;2022-12-07T10:44:28;100619.00;;;-3.40
73937;BMP180;59249;59.736;30.568;2022-12-07T10:47:13;100613.00;;;-3.40
73937;BMP180;59249;59.736;30.568;2022-12-07T10:53:28;100603.00;;;-3.40
73937;BMP180;59249;59.736;30.568;2022-12-07T10:56:42;100606.00;;;-3.30
73937;BMP180;59249;59.736;30.568;2022-12-07T10:59:42;100606.00;;;-3.50
73937;BMP180;59249;59.736;30.568;2022-12-07T11:02:42;100602.00;;;-3.40
73937;BMP180;59249;59.736;30.568;2022-12-07T11:05:35;100601.00;;;-3.50
73937;BMP180;59249;59.736;30.568;2022-12-07T11:08:16;100596.00;;;-3.60
73937;BMP180;59249;59.736;30.568;2022-12-07T11:10:57;100602.00;;;-3.60
73937;BMP180;59249;59.736;30.568;2022-12-07T11:13:39;100599.00;;;-3.70
73937;BMP180;59249;59.736;30.568;2022-12-07T11:16:43;100592.00;;;-3.80
73937;BMP180;59249;59.736;30.568;2022-12-07T11:19:42;100588.00;;;-3.90
73937;BMP180;59249;59.736;30.568;2022-12-07T11:22:21;100587.00;;;-4.00
73937;BMP180;59249;59.736;30.568;2022-12-07T11:25:00;100605.00;;;-3.90
73937;BMP180;59249;59.736;30.568;2022-12-07T11:27:48;100598.00;;;-3.90
73937;BMP180;59249;59.736;30.568;2022-12-07T11:30:34;100596.00;;;-4.00
73937;BMP180;59249;59.736;30.568;2022-12-07T11:33:17;100592.00;;;-3.90
73937;BMP180;59249;59.736;30.568;2022-12-07T11:36:04;100582.00;;;-4.00
73937;BMP180;59249;59.736;30.568;2022-12-07T11:38:46;100590.00;;;-4.00
73937;BMP180;59249;59.736;30.568;2022-12-07T11:41:22;100574.00;;;-4.10
73937;BMP180;59249;59.736;30.568;2022-12-07T11:43:58;100577.00;;;-4.10
73937;BMP180;59249;59.736;30.568;2022-12-07T11:46:45;100588.00;;;-4.30
73937;BMP180;59249;59.736;30.568;2022-12-07T11:49:21;100578.00;;;-4.20
73937;BMP180;59249;59.736;30.568;2022-12-07T11:52:06;100572.00;;;-4.30
73937;BMP180;59249;59.736;30.568;2022-12-07T11:54:43;100571.00;;;-4.30
73937;BMP180;59249;59.736;30.568;2022-12-07T11:57:19;100572.00;;;-4.20
73937;BMP180;59249;59.736;30.568;2022-12-07T11:59:58;100579.00;;;-4.30
73937;BMP180;59249;59.736;30.568;2022-12-07T12:02:35;100576.00;;;-4.20
73937;BMP180;59249;59.736;30.568;2022-12-07T12:05:15;100571.00;;;-4.50
73937;BMP180;59249;59.736;30.568;2022-12-07T12:07:56;100568.00;;;-4.50
73937;BMP180;59249;59.736;30.568;2022-12-07T12:10:56;100575.00;;;-4.50
73937;BMP180;59249;59.736;30.568;2022-12-07T12:13:48;100565.00;;;-4.40
73937;BMP180;59249;59.736;30.568;2022-12-07T12:17:23;100561.00;;;-4.20
73937;BMP180;59249;59.736;30.568;2022-12-07T12:20:17;100561.00;;;-4.30
73937;BMP180;59249;59.736;30.568;2022-12-07T12:22:54;100558.00;;;-4.40
73937;BMP180;59249;59.736;30.568;2022-12-07T12:25:29;100554.00;;;-4.30
73937;BMP180;59249;59.736;30.568;2022-12-07T12:28:04;100558.00;;;-4.40
73937;BMP180;59249;59.736;30.568;2022-12-07T12:30:35;100548.00;;;-4.40
73937;BMP180;59249;59.736;30.568;2022-12-07T12:33:14;100548.00;;;-4.50
73937;BMP180;59249;59.736;30.568;2022-12-07T12:36:19;100550.00;;;-4.40
73937;BMP180;59249;59.736;30.568;2022-12-07T12:39:11;100555.00;;;-4.50
73937;BMP180;59249;59.736;30.568;2022-12-07T12:41:55;100545.00;;;-4.40
73937;BMP180;59249;59.736;30.568;2022-12-07T12:47:57;100536.00;;;-4.60
73937;BMP180;59249;59.736;30.568;2022-12-07T12:50:30;100541.00;;;-4.60
73937;BMP180;59249;59.736;30.568;2022-12-07T12:53:16;100536.00;;;-4.60
73937;BMP180;59249;59.736;30.568;2022-12-07T12:56:26;100539.00;;;-4.60
73937;BMP180;59249;59.736;30.568;2022-12-07T12:59:25;100540.00;;;-4.50
73937;BMP180;59249;59.736;30.568;2022-12-07T13:02:16;100539.00;;;-4.70
73937;BMP180;59249;59.736;30.568;2022-12-07T13:04:55;100529.00;;;-4.70
73937;BMP180;59249;59.736;30.568;2022-12-07T13:07:56;100526.00;;;-4.60
73937;BMP180;59249;59.736;30.568;2022-12-07T13:10:42;100522.00;;;-4.60
73937;BMP180;59249;59.736;30.568;2022-12-07T13:16:52;100521.00;;;-4.60
73937;BMP180;59249;59.736;30.568;2022-12-07T13:22:47;100524.00;;;-4.60
73937;BMP180;59249;59.736;30.568;2022-12-07T13:25:44;100516.00;;;-4.60
73937;BMP180;59249;59.736;30.568;2022-12-07T13:28:20;100515.00;;;-4.60
73937;BMP180;59249;59.736;30.568;2022-12-07T13:31:09;100513.00;;;-4.60
73937;BMP180;59249;59.736;30.568;2022-12-07T13:33:44;100512.00;;;-4.60
73937;BMP180;59249;59.736;30.568;2022-12-07T13:36:19;100504.00;;;-4.60
73937;BMP180;59249;59.736;30.568;2022-12-07T13:38:55;100508.00;;;-4.70
73937;BMP180;59249;59.736;30.568;2022-12-07T13:41:26;100506.00;;;-4.80
73937;BMP180;59249;59.736;30.568;2022-12-07T13:44:01;100507.00;;;-4.70
73937;BMP180;59249;59.736;30.568;2022-12-07T13:46:42;100490.00;;;-4.70
73937;BMP180;59249;59.736;30.568;2022-12-07T13:49:21;100497.00;;;-4.60
73937;BMP180;59249;59.736;30.568;2022-12-07T13:51:52;100484.00;;;-4.60
73937;BMP180;59249;59.736;30.568;2022-12-07T13:54:22;100480.00;;;-4.60
73937;BMP180;59249;59.736;30.568;2022-12-07T13:56:52;100494.00;;;-4.60
73937;BMP180;59249;59.736;30.568;2022-12-07T13:59:23;100487.00;;;-4.70
73937;BMP180;59249;59.736;30.568;2022-12-07T14:01:54;100485.00;;;-4.70
73937;BMP180;59249;59.736;30.568;2022-12-07T14:04:33;100488.00;;;-4.70
73937;BMP180;59249;59.736;30.568;2022-12-07T14:07:24;100475.00;;;-4.80
73937;BMP180;59249;59.736;30.568;2022-12-07T14:09:57;100476.00;;;-4.80
73937;BMP180;59249;59.736;30.568;2022-12-07T14:12:32;100473.00;;;-4.80
73937;BMP180;59249;59.736;30.568;2022-12-07T14:15:05;100473.00;;;-4.80
73937;BMP180;59249;59.736;30.568;2022-12-07T14:17:55;100469.00;;;-4.80
73937;BMP180;59249;59.736;30.568;2022-12-07T14:20:33;100473.00;;;-4.70
73937;BMP180;59249;59.736;30.568;2022-12-07T14:23:04;100466.00;;;-4.70
73937;BMP180;59249;59.736;30.568;2022-12-07T14:25:45;100461.00;;;-4.70
73937;BMP180;59249;59.736;30.568;2022-12-07T14:28:27;100455.00;;;-4.80
73937;BMP180;59249;59.736;30.568;2022-12-07T14:30:58;100467.00;;;-4.80
73937;BMP180;59249;59.736;30.568;2022-12-07T14:33:27;100461.00;;;-4.70
73937;BMP180;59249;59.736;30.568;2022-12-07T14:35:57;100462.00;;;-4.80
73937;BMP180;59249;59.736;30.568;2022-12-07T14:38:37;100457.00;;;-4.80
73937;BMP180;59249;59.736;30.568;2022-12-07T14:41:12;100459.00;;;-4.70